Time;durP1;ratioP1;P1;durP2;ratioP2;P2;SDS_P1;SDS_P2;PMS_P1;PMS_P2;Temp;Humidity;BMP_temperature;BMP_pressure;BME280_temperature;BME280_humidity;BME280_pressure;Samples;Min_cycle;Max_cycle;Signal;HPM_P1;HPM_P2
2024/01/08 00:01:12;;;;;;;2.08;0.93;;;-0.40;1.00;;;;;;5062129;28;20036;-57
2024/01/08 00:03:40;;;;;;;0.85;0.40;;;-0.40;99.90;;;;;;5062911;28;20508;-57
2024/01/08 00:06:06;;;;;;;2.38;1.63;;;-0.30;99.90;;;;;;5062518;28;20029;-57
2024/01/08 00:08:32;;;;;;;0.38;0.30;;;-0.30;53.30;;;;;;5062714;28;20032;-56
2024/01/08 00:10:58;;;;;;;2.28;1.40;;;-0.30;1.00;;;;;;5069273;28;20055;-56
2024/01/08 00:13:23;;;;;;;1.55;0.63;;;-0.30;99.90;;;;;;5062529;28;20163;-55
2024/01/08 00:15:49;;;;;;;1.92;0.68;;;-0.40;1.00;;;;;;5061356;28;20082;-55
2024/01/08 00:18:15;;;;;;;1.85;1.13;;;-0.30;99.90;;;;;;5065609;28;20356;-57
2024/01/08 00:20:41;;;;;;;2.17;1.00;;;-0.40;99.90;;;;;;5063001;28;20044;-56
2024/01/08 00:23:07;;;;;;;1.50;1.08;;;-0.50;43.80;;;;;;5062786;28;20532;-56
2024/01/08 00:25:32;;;;;;;0.30;0.20;;;-0.60;99.90;;;;;;5065094;28;20054;-56
2024/01/08 00:27:58;;;;;;;0.45;0.30;;;-0.40;99.90;;;;;;5063257;28;20341;-56
2024/01/08 00:30:24;;;;;;;2.35;1.23;;;-0.50;99.90;;;;;;5063229;28;20707;-55
2024/01/08 00:32:49;;;;;;;1.08;0.70;;;-0.50;1.00;;;;;;5063299;28;20032;-57
2024/01/08 00:35:15;;;;;;;0.98;0.77;;;-0.30;99.90;;;;;;5062346;28;20033;-57
2024/01/08 00:37:41;;;;;;;4.35;1.70;;;-0.30;1.00;;;;;;5058106;28;20412;-56
2024/01/08 00:40:09;;;;;;;1.17;0.75;;;-0.40;1.00;;;;;;5047380;28;20081;-56
2024/01/08 00:42:35;;;;;;;2.75;1.25;;;-0.60;99.90;;;;;;5066074;28;20032;-54
2024/01/08 00:45:04;;;;;;;2.70;1.90;;;-0.60;1.00;;;;;;5061945;28;20039;-56
2024/01/08 00:47:30;;;;;;;5.63;1.20;;;-0.60;99.90;;;;;;5059725;28;20093;-55
2024/01/08 00:49:56;;;;;;;2.30;0.95;;;-0.50;99.90;;;;;;5062876;28;20036;-56
2024/01/08 00:52:22;;;;;;;0.65;0.60;;;-0.40;1.00;;;;;;5059515;28;20036;-57
2024/01/08 00:54:47;;;;;;;2.53;1.52;;;-0.30;99.90;;;;;;5061745;28;20075;-56
2024/01/08 00:57:13;;;;;;;0.73;0.73;;;-0.50;99.90;;;;;;5059869;28;20249;-54
2024/01/08 00:59:38;;;;;;;1.25;0.45;;;-0.50;1.00;;;;;;5044590;28;20078;-56
2024/01/08 01:02:04;;;;;;;0.35;0.28;;;-0.60;7.50;;;;;;5051460;28;20635;-58
2024/01/08 01:04:29;;;;;;;2.65;1.05;;;-0.50;58.40;;;;;;5059646;28;20035;-60
2024/01/08 01:06:55;;;;;;;1.83;1.02;;;-0.50;1.00;;;;;;5064012;28;20079;-59
2024/01/08 01:09:21;;;;;;;1.48;0.90;;;-0.60;1.00;;;;;;5062971;28;20511;-59
2024/01/08 01:11:46;;;;;;;1.90;0.88;;;-0.50;1.00;;;;;;5058950;28;20029;-59
2024/01/08 01:14:12;;;;;;;1.85;1.23;;;-0.60;99.90;;;;;;5061618;28;20115;-59
2024/01/08 01:16:38;;;;;;;1.73;0.90;;;-0.70;1.00;;;;;;5061102;28;20420;-59
2024/01/08 01:19:03;;;;;;;1.85;0.82;;;-0.70;1.00;;;;;;5061364;28;20032;-60
2024/01/08 01:21:29;;;;;;;2.92;1.90;;;-0.60;99.90;;;;;;5046300;28;20028;-59
2024/01/08 01:23:54;;;;;;;3.08;1.30;;;-0.60;99.90;;;;;;5063802;28;20082;-59
2024/01/08 01:26:20;;;;;;;2.42;1.10;;;-0.70;99.90;;;;;;5061316;28;20040;-60
2024/01/08 01:28:46;;;;;;;0.13;0.13;;;-0.60;99.90;;;;;;5059080;28;20078;-58
2024/01/08 01:31:12;;;;;;;0.17;0.13;;;-0.50;1.00;;;;;;5062077;28;20029;-59
2024/01/08 01:33:39;;;;;;;4.22;1.77;;;-0.50;1.00;;;;;;5062353;28;20527;-59
2024/01/08 01:36:08;;;;;;;2.10;1.27;;;-0.70;1.00;;;;;;5042444;28;20033;-59
2024/01/08 01:38:33;;;;;;;2.45;1.23;;;-0.70;99.90;;;;;;5059844;28;20336;-59
2024/01/08 01:40:59;;;;;;;4.05;2.33;;;-0.80;1.00;;;;;;5062096;28;20032;-59
2024/01/08 01:43:26;;;;;;;4.18;2.05;;;-0.80;1.00;;;;;;5060664;28;20424;-58
2024/01/08 01:46:00;;;;;;;0.10;0.10;;;-0.80;1.00;;;;;;5061625;28;20506;-59
2024/01/08 01:48:27;;;;;;;1.73;1.08;;;-0.70;99.90;;;;;;5057398;28;20368;-58
2024/01/08 01:50:53;;;;;;;0.45;0.38;;;-0.60;99.90;;;;;;5060458;28;20143;-60
2024/01/08 01:53:19;;;;;;;3.70;2.10;;;-0.80;1.00;;;;;;5060415;28;20295;-58
2024/01/08 01:55:45;;;;;;;3.03;1.65;;;-0.70;1.00;;;;;;5059044;28;20033;-56
2024/01/08 01:58:14;;;;;;;3.08;2.13;;;-0.90;99.90;;;;;;5060151;28;20560;-58
2024/01/08 02:00:40;;;;;;;5.10;2.50;;;-1.00;1.00;;;;;;5061681;28;20352;-58
2024/01/08 02:03:06;;;;;;;3.53;1.58;;;-1.10;1.00;;;;;;5060056;28;20029;-58
2024/01/08 02:05:33;;;;;;;0.73;0.43;;;-1.00;99.90;;;;;;5061437;28;20033;-59
2024/01/08 02:07:59;;;;;;;5.32;1.75;;;-0.90;99.90;;;;;;5061253;28;20025;-59
2024/01/08 02:10:25;;;;;;;2.20;1.60;;;-1.00;99.90;;;;;;5060438;28;20029;-58
2024/01/08 02:12:51;;;;;;;9.38;3.20;;;-1.30;1.00;;;;;;5061008;28;20036;-59
2024/01/08 02:15:17;;;;;;;5.78;2.33;;;-1.30;1.00;;;;;;5058246;28;20463;-58
2024/01/08 02:17:42;;;;;;;5.20;3.30;;;-1.40;1.00;;;;;;5060061;28;20037;-55
2024/01/08 02:20:08;;;;;;;1.17;0.63;;;-1.40;1.00;;;;;;5062693;28;20372;-58
2024/01/08 02:22:41;;;;;;;0.17;0.17;;;-1.40;99.90;;;;;;5060548;28;20553;-57
2024/01/08 02:25:11;;;;;;;0.10;0.10;;;-1.40;99.90;;;;;;5059559;28;20029;-57
2024/01/08 02:27:36;;;;;;;1.45;1.05;;;-1.40;99.90;;;;;;5061048;28;20041;-58
2024/01/08 02:30:02;;;;;;;1.67;0.80;;;-1.40;99.90;;;;;;5058807;28;20032;-59
2024/01/08 02:32:28;;;;;;;1.70;0.73;;;-1.30;99.90;;;;;;5061388;28;20041;-58
2024/01/08 02:34:53;;;;;;;2.25;0.88;;;-1.40;99.90;;;;;;5064054;28;20054;-58
2024/01/08 02:37:19;;;;;;;6.50;2.08;;;-1.30;99.90;;;;;;5059596;28;20134;-59
2024/01/08 02:39:45;;;;;;;1.55;0.95;;;-1.30;99.90;;;;;;5060407;28;20033;-59
2024/01/08 02:42:13;;;;;;;0.00;0.00;;;-1.40;99.90;;;;;;5061158;28;20538;-58
2024/01/08 02:44:39;;;;;;;0.17;0.17;;;-1.40;1.00;;;;;;5059654;28;20040;-59
2024/01/08 02:47:05;;;;;;;2.45;1.42;;;-1.20;99.90;;;;;;5059507;28;20443;-59
2024/01/08 02:49:30;;;;;;;3.75;2.47;;;-1.10;99.90;;;;;;5060668;28;20045;-57
2024/01/08 02:51:56;;;;;;;2.38;1.75;;;-1.20;99.90;;;;;;5059820;28;20427;-57
2024/01/08 02:54:21;;;;;;;2.08;1.05;;;-1.30;99.90;;;;;;5058284;28;20419;-57
2024/01/08 02:56:47;;;;;;;4.70;2.20;;;-1.20;99.90;;;;;;5058034;28;20444;-59
2024/01/08 02:59:12;;;;;;;1.65;0.52;;;-1.20;1.00;;;;;;5059883;28;20396;-57
2024/01/08 03:01:38;;;;;;;7.55;3.45;;;-1.10;99.90;;;;;;5060162;28;20040;-59
2024/01/08 03:04:04;;;;;;;2.90;1.50;;;-1.20;1.00;;;;;;5059275;28;20404;-60
2024/01/08 03:06:30;;;;;;;0.93;0.93;;;-1.20;1.00;;;;;;5059657;28;20044;-59
2024/01/08 03:08:55;;;;;;;2.45;1.50;;;-1.20;1.00;;;;;;5061298;28;20052;-59
2024/01/08 03:11:21;;;;;;;6.78;1.80;;;-1.20;1.00;;;;;;5059975;28;20060;-59
2024/01/08 03:13:47;;;;;;;2.90;0.82;;;-1.30;44.90;;;;;;5061873;28;20040;-58
2024/01/08 03:16:12;;;;;;;3.72;1.00;;;-1.30;89.90;;;;;;5059242;28;20462;-58
2024/01/08 03:18:38;;;;;;;0.73;0.40;;;-1.30;99.90;;;;;;5062423;28;20297;-59
2024/01/08 03:21:04;;;;;;;2.30;1.27;;;-1.10;1.00;;;;;;5059120;28;20066;-56
2024/01/08 03:23:29;;;;;;;0.30;0.30;;;-1.10;1.00;;;;;;5056848;28;20035;-59
2024/01/08 03:25:55;;;;;;;1.25;1.08;;;-0.90;1.00;;;;;;5058300;28;20396;-58
2024/01/08 03:28:20;;;;;;;1.45;0.57;;;-0.90;1.00;;;;;;5059573;28;20045;-59
2024/01/08 03:30:46;;;;;;;3.33;1.92;;;-1.00;1.00;;;;;;5070951;28;20047;-56
2024/01/08 03:33:12;;;;;;;3.78;1.80;;;-1.20;94.40;;;;;;5064246;28;20094;-59
2024/01/08 03:35:37;;;;;;;0.65;0.22;;;-1.10;2.10;;;;;;5064206;28;20029;-59
2024/01/08 03:38:04;;;;;;;0.90;0.65;;;-1.20;99.90;;;;;;5059721;28;20126;-59
2024/01/08 03:40:29;;;;;;;2.95;1.77;;;-1.20;99.90;;;;;;5062174;28;20039;-57
2024/01/08 03:42:55;;;;;;;4.00;1.95;;;-1.20;99.90;;;;;;5064035;28;20104;-59
2024/01/08 03:45:20;;;;;;;3.63;1.67;;;-1.20;99.90;;;;;;5063966;28;20072;-58
2024/01/08 03:47:46;;;;;;;0.17;0.17;;;-1.30;99.90;;;;;;5064194;28;20044;-58
2024/01/08 03:50:11;;;;;;;3.55;1.55;;;-1.10;99.90;;;;;;5061555;28;20025;-58
2024/01/08 03:52:37;;;;;;;0.70;0.52;;;-1.30;99.90;;;;;;5063367;28;20086;-59
2024/01/08 03:55:03;;;;;;;0.10;0.10;;;-1.20;1.00;;;;;;5062277;28;20098;-59
2024/01/08 03:57:28;;;;;;;2.17;1.42;;;-0.90;1.00;;;;;;5061406;28;20068;-57
2024/01/08 03:59:54;;;;;;;3.40;2.65;;;-1.00;99.90;;;;;;5063720;28;20447;-57
2024/01/08 04:02:19;;;;;;;0.00;0.00;;;-1.10;94.50;;;;;;5061683;28;20427;-58
2024/01/08 04:04:45;;;;;;;2.17;1.55;;;-1.30;99.90;;;;;;5063598;28;20491;-58
2024/01/08 04:07:11;;;;;;;3.08;2.30;;;-1.10;99.90;;;;;;5062079;28;20450;-56
2024/01/08 04:09:38;;;;;;;5.85;2.97;;;-1.30;99.90;;;;;;5063411;28;20032;-59
2024/01/08 04:12:04;;;;;;;2.33;1.35;;;-1.20;99.90;;;;;;5066203;28;20041;-59
2024/01/08 04:14:30;;;;;;;6.50;2.85;;;-1.30;1.00;;;;;;5063386;28;20111;-58
2024/01/08 04:16:56;;;;;;;0.75;0.63;;;-1.10;1.00;;;;;;5063465;28;20117;-59
2024/01/08 04:19:22;;;;;;;4.05;2.40;;;-1.10;1.00;;;;;;5062576;28;20483;-59
2024/01/08 04:21:47;;;;;;;4.45;1.75;;;-1.10;99.90;;;;;;5063049;28;20479;-58
2024/01/08 04:24:14;;;;;;;4.93;2.20;;;-1.10;1.00;;;;;;5061690;28;20391;-58
2024/01/08 04:26:39;;;;;;;4.50;2.70;;;-1.20;1.00;;;;;;5063981;28;20538;-59
2024/01/08 04:29:05;;;;;;;2.28;1.23;;;-1.30;1.00;;;;;;5060451;28;20032;-56
2024/01/08 04:31:31;;;;;;;4.18;2.15;;;-1.30;35.90;;;;;;5063179;28;20067;-58
2024/01/08 04:33:57;;;;;;;1.58;0.73;;;-1.20;63.20;;;;;;5063850;28;20333;-56
2024/01/08 04:36:22;;;;;;;0.43;0.43;;;-1.00;1.00;;;;;;5061678;28;20396;-56
2024/01/08 04:38:48;;;;;;;0.00;0.00;;;-1.10;1.00;;;;;;5062918;28;20261;-55
2024/01/08 04:41:20;;;;;;;1.55;0.82;;;-0.90;11.30;;;;;;5061198;28;20040;-57
2024/01/08 04:43:47;;;;;;;0.55;0.55;;;-0.90;1.00;;;;;;5065601;28;20036;-56
2024/01/08 04:46:13;;;;;;;0.05;0.05;;;-1.10;1.00;;;;;;5065399;28;20028;-57
2024/01/08 04:48:40;;;;;;;9.55;1.38;;;-1.00;14.60;;;;;;5061241;28;20480;-58
2024/01/08 04:51:05;;;;;;;4.00;2.10;;;-1.00;1.00;;;;;;5062309;28;20024;-59
2024/01/08 04:53:38;;;;;;;1.67;0.80;;;-1.10;1.00;;;;;;5058498;28;20039;-59
2024/01/08 04:56:04;;;;;;;6.75;2.63;;;-1.20;1.00;;;;;;5046465;28;20491;-57
2024/01/08 04:58:30;;;;;;;3.80;2.10;;;-1.20;44.80;;;;;;5064102;28;20043;-59
2024/01/08 05:00:55;;;;;;;9.27;1.27;;;-1.10;99.90;;;;;;5062496;28;20031;-57
2024/01/08 05:03:21;;;;;;;1.63;1.08;;;-1.10;99.90;;;;;;5061385;28;20117;-59
2024/01/08 05:05:47;;;;;;;3.83;0.63;;;-1.10;99.90;;;;;;5061703;28;20032;-59
2024/01/08 05:08:12;;;;;;;0.65;0.60;;;-1.10;50.90;;;;;;5061193;28;20036;-58
2024/01/08 05:10:38;;;;;;;4.80;2.65;;;-1.00;1.00;;;;;;5067351;28;20105;-58
2024/01/08 05:13:04;;;;;;;4.50;2.50;;;-1.00;1.00;;;;;;5043282;28;20481;-58
2024/01/08 05:15:30;;;;;;;4.70;1.98;;;-1.00;1.00;;;;;;5062569;28;20039;-57
2024/01/08 05:17:56;;;;;;;6.72;3.50;;;-1.10;1.00;;;;;;5062397;28;20025;-58
2024/01/08 05:20:21;;;;;;;7.15;3.90;;;-1.10;1.00;;;;;;5060893;28;20365;-57
2024/01/08 05:22:47;;;;;;;1.70;1.02;;;-1.10;1.00;;;;;;5071164;28;20031;-59
2024/01/08 05:25:12;;;;;;;3.50;1.13;;;-1.00;4.80;;;;;;5061189;28;20024;-59
2024/01/08 05:27:38;;;;;;;7.03;2.35;;;-0.80;51.30;;;;;;5059901;28;20472;-56
2024/01/08 05:30:04;;;;;;;0.82;0.73;;;-0.90;1.00;;;;;;5059643;28;20685;-58
2024/01/08 05:32:29;;;;;;;0.73;0.73;;;-0.90;1.00;;;;;;5062192;28;20055;-59
2024/01/08 05:34:55;;;;;;;0.90;0.73;;;-0.90;1.00;;;;;;5062207;28;20453;-60
2024/01/08 05:37:21;;;;;;;0.95;0.95;;;-0.90;1.00;;;;;;5059530;28;20103;-59
2024/01/08 05:39:46;;;;;;;8.50;3.70;;;-0.90;1.00;;;;;;5061733;28;20048;-58
2024/01/08 05:42:12;;;;;;;6.80;4.05;;;-1.00;1.00;;;;;;5065637;28;20039;-59
2024/01/08 05:44:37;;;;;;;4.13;2.13;;;-1.10;1.00;;;;;;5062130;28;20124;-56
2024/01/08 05:47:04;;;;;;;1.67;1.58;;;-1.00;2.30;;;;;;5059292;28;20408;-59
2024/01/08 05:49:29;;;;;;;4.28;3.13;;;-1.00;1.00;;;;;;5061885;28;20045;-58
2024/01/08 05:51:58;;;;;;;3.28;2.03;;;-0.90;90.20;;;;;;5060385;28;20032;-58
2024/01/08 05:54:23;;;;;;;6.00;4.10;;;-0.90;1.00;;;;;;5059712;28;20037;-58
2024/01/08 05:56:49;;;;;;;6.25;3.38;;;-1.00;98.30;;;;;;5060891;28;20043;-61
2024/01/08 05:59:14;;;;;;;2.40;1.45;;;-0.90;99.90;;;;;;5059976;28;20040;-58
2024/01/08 06:01:42;;;;;;;3.38;2.28;;;-1.00;93.10;;;;;;5061644;28;20039;-57
2024/01/08 06:04:07;;;;;;;4.38;2.90;;;-0.80;99.90;;;;;;5059807;28;20043;-58
2024/01/08 06:06:33;;;;;;;3.33;2.35;;;-0.90;97.90;;;;;;5060863;28;20037;-59
2024/01/08 06:08:58;;;;;;;5.72;3.67;;;-0.90;99.90;;;;;;5065278;28;20032;-57
2024/01/08 06:11:24;;;;;;;0.10;0.10;;;-1.00;99.90;;;;;;5058383;28;20131;-57
2024/01/08 06:13:50;;;;;;;3.30;2.50;;;-1.00;99.90;;;;;;5060078;28;20028;-59
2024/01/08 06:16:16;;;;;;;6.22;2.97;;;-0.80;99.90;;;;;;5059826;28;20074;-58
2024/01/08 06:18:42;;;;;;;3.80;3.05;;;-0.70;99.90;;;;;;5061342;28;20454;-59
2024/01/08 06:21:07;;;;;;;5.43;3.55;;;-0.80;1.00;;;;;;5059623;28;20139;-59
2024/01/08 06:23:33;;;;;;;4.53;1.75;;;-1.00;1.00;;;;;;5043085;28;20476;-57
2024/01/08 06:26:01;;;;;;;0.00;0.00;;;-1.00;99.90;;;;;;5064121;28;20038;-57
2024/01/08 06:28:27;;;;;;;3.78;1.83;;;-1.00;99.90;;;;;;5058886;28;20047;-59
2024/01/08 06:30:52;;;;;;;10.02;4.95;;;-0.90;99.90;;;;;;5060105;28;20391;-59
2024/01/08 06:33:18;;;;;;;8.32;3.85;;;-0.80;1.00;;;;;;5059647;28;20136;-59
2024/01/08 06:35:43;;;;;;;5.95;3.45;;;-0.90;1.00;;;;;;5059814;28;20196;-58
2024/01/08 06:38:09;;;;;;;7.25;4.03;;;-0.90;1.00;;;;;;5058124;28;20514;-59
2024/01/08 06:40:34;;;;;;;4.90;2.97;;;-0.90;1.00;;;;;;5059908;28;20143;-58
2024/01/08 06:43:00;;;;;;;2.15;1.52;;;-1.00;1.00;;;;;;5058681;28;20036;-57
2024/01/08 06:45:26;;;;;;;6.93;3.60;;;-0.90;1.00;;;;;;5058615;28;20043;-56
2024/01/08 06:47:51;;;;;;;5.72;2.30;;;-0.90;1.00;;;;;;5058529;28;20389;-59
2024/01/08 06:50:17;;;;;;;5.05;2.75;;;-0.90;1.00;;;;;;5058976;28;20028;-58
2024/01/08 06:52:42;;;;;;;5.13;2.60;;;-0.70;1.00;;;;;;5060397;28;20759;-58
2024/01/08 06:55:08;;;;;;;5.28;3.00;;;-0.80;1.00;;;;;;5058220;28;20086;-59
2024/01/08 06:57:34;;;;;;;0.15;0.15;;;-0.80;1.00;;;;;;5058737;28;20048;-58
2024/01/08 06:59:59;;;;;;;2.70;1.15;;;-0.80;1.00;;;;;;5058413;28;20411;-57
2024/01/08 07:02:25;;;;;;;20.58;3.97;;;-0.80;99.90;;;;;;5060162;28;20032;-58
2024/01/08 07:04:52;;;;;;;1.90;1.35;;;-0.80;99.90;;;;;;5060628;28;20033;-58
2024/01/08 07:07:17;;;;;;;7.63;3.35;;;-0.80;99.90;;;;;;5059433;28;20123;-58
2024/01/08 07:09:43;;;;;;;8.10;2.72;;;-0.80;99.90;;;;;;5060543;28;20493;-59
2024/01/08 07:12:09;;;;;;;5.75;2.75;;;-0.80;99.90;;;;;;5060167;28;20131;-59
2024/01/08 07:14:43;;;;;;;1.00;0.90;;;-0.80;99.90;;;;;;5061112;28;20041;-60
2024/01/08 07:17:10;;;;;;;5.10;2.47;;;-0.80;99.90;;;;;;5057376;28;20410;-59
2024/01/08 07:19:35;;;;;;;0.57;0.50;;;-0.70;99.90;;;;;;5059588;28;20044;-59
2024/01/08 07:22:01;;;;;;;4.13;2.35;;;-0.60;1.00;;;;;;5059320;28;20115;-58
2024/01/08 07:24:27;;;;;;;3.65;2.17;;;-0.70;1.00;;;;;;5060977;28;20025;-58
2024/01/08 07:26:52;;;;;;;6.72;2.83;;;-0.60;99.90;;;;;;5060109;28;20040;-56
2024/01/08 07:29:18;;;;;;;4.25;2.78;;;-0.60;99.90;;;;;;5057612;28;20036;-60
2024/01/08 07:31:43;;;;;;;5.57;2.63;;;-0.60;1.00;;;;;;5059480;28;20435;-59
2024/01/08 07:34:09;;;;;;;2.50;1.45;;;-0.50;99.90;;;;;;5058704;28;20033;-59
2024/01/08 07:36:35;;;;;;;4.45;2.75;;;-0.40;1.00;;;;;;5060176;28;20485;-58
2024/01/08 07:39:01;;;;;;;1.80;1.20;;;-0.40;1.00;;;;;;5058594;28;20037;-60
2024/01/08 07:41:27;;;;;;;4.53;2.45;;;-0.40;99.90;;;;;;5059297;28;20394;-59
2024/01/08 07:43:53;;;;;;;3.40;1.50;;;-0.50;99.90;;;;;;5060766;28;20028;-59
2024/01/08 07:46:18;;;;;;;4.32;2.08;;;-0.60;99.90;;;;;;5057992;28;20032;-59
2024/01/08 07:48:44;;;;;;;5.90;2.08;;;-0.40;99.90;;;;;;5060145;28;20032;-59
2024/01/08 07:51:10;;;;;;;5.53;1.85;;;-0.30;1.00;;;;;;5058580;28;20025;-58
2024/01/08 07:53:36;;;;;;;0.73;0.73;;;-0.50;99.90;;;;;;5059516;28;20496;-57
2024/01/08 07:56:02;;;;;;;2.65;2.00;;;-0.40;99.90;;;;;;5057400;28;21562;-58
2024/01/08 07:58:28;;;;;;;3.85;1.90;;;-0.50;99.90;;;;;;5060591;28;20116;-59
2024/01/08 08:00:54;;;;;;;7.15;3.00;;;-0.50;1.00;;;;;;5059828;28;20029;-58
2024/01/08 08:03:20;;;;;;;3.08;2.30;;;-0.60;1.00;;;;;;5057631;28;20044;-56
2024/01/08 08:05:46;;;;;;;2.60;1.40;;;-0.40;1.00;;;;;;5059500;28;20492;-56
2024/01/08 08:08:11;;;;;;;0.00;0.00;;;-0.40;1.00;;;;;;5059897;28;20086;-56
2024/01/08 08:10:37;;;;;;;5.13;2.63;;;-0.50;1.00;;;;;;5060143;28;20029;-55
2024/01/08 08:13:03;;;;;;;0.10;0.10;;;-0.50;1.00;;;;;;5058745;28;20507;-54
2024/01/08 08:15:29;;;;;;;1.30;1.02;;;-0.30;99.90;;;;;;5062811;28;20055;-56
2024/01/08 08:17:55;;;;;;;6.28;3.00;;;-0.40;52.50;;;;;;5063556;28;20032;-55
2024/01/08 08:20:21;;;;;;;4.35;1.60;;;-0.50;1.00;;;;;;5046590;28;20025;-55
2024/01/08 08:22:46;;;;;;;2.45;1.45;;;-0.60;17.70;;;;;;5063369;28;20491;-57
2024/01/08 08:25:12;;;;;;;0.75;0.47;;;-0.60;99.90;;;;;;5061154;28;20033;-60
2024/01/08 08:27:38;;;;;;;0.70;0.70;;;-0.50;1.00;;;;;;5063235;28;20040;-58
2024/01/08 08:30:04;;;;;;;3.45;2.20;;;-0.50;8.80;;;;;;5042658;28;20111;-58
2024/01/08 08:32:29;;;;;;;0.05;0.05;;;-0.60;1.00;;;;;;5062551;28;20098;-59
2024/01/08 08:34:55;;;;;;;0.35;0.35;;;-0.60;1.00;;;;;;5063605;28;20414;-56
2024/01/08 08:37:20;;;;;;;3.63;2.00;;;-0.20;1.00;;;;;;5061208;28;20055;-59
2024/01/08 08:39:46;;;;;;;0.08;0.08;;;-0.20;1.00;;;;;;5062355;28;20032;-58
2024/01/08 08:42:12;;;;;;;9.40;3.60;;;-0.40;1.00;;;;;;5060140;28;20525;-59
2024/01/08 08:44:37;;;;;;;0.80;0.52;;;-0.50;1.00;;;;;;5065406;28;20037;-60
2024/01/08 08:47:03;;;;;;;2.63;1.90;;;-0.50;99.90;;;;;;5042669;28;20032;-58
2024/01/08 08:49:29;;;;;;;1.15;1.02;;;-0.50;1.00;;;;;;5061524;28;20041;-60
2024/01/08 08:51:54;;;;;;;1.42;1.15;;;-0.50;6.50;;;;;;5062468;28;20583;-58
2024/01/08 08:54:20;;;;;;;4.72;2.65;;;-0.60;99.90;;;;;;5062112;28;20554;-59
2024/01/08 08:56:45;;;;;;;4.43;2.17;;;-0.60;99.90;;;;;;5061427;28;20032;-58
2024/01/08 08:59:11;;;;;;;3.67;1.52;;;-0.70;1.00;;;;;;5059431;28;20483;-57
2024/01/08 09:01:37;;;;;;;3.40;1.98;;;-0.60;32.90;;;;;;5062183;28;20467;-59
2024/01/08 09:04:02;;;;;;;1.40;1.15;;;-0.50;1.00;;;;;;5061106;28;20055;-59
2024/01/08 09:06:30;;;;;;;0.85;0.45;;;-0.50;1.00;;;;;;5062763;28;20440;-58
2024/01/08 09:08:56;;;;;;;0.22;0.22;;;-0.30;99.90;;;;;;5063091;28;20056;-60
2024/01/08 09:11:22;;;;;;;7.35;2.30;;;-0.20;38.00;;;;;;5059626;28;20100;-61
2024/01/08 09:13:47;;;;;;;2.13;0.38;;;-0.50;1.00;;;;;;5063364;28;20082;-57
2024/01/08 09:16:14;;;;;;;5.43;1.88;;;-0.60;99.90;;;;;;5061080;28;20178;-56
2024/01/08 09:18:40;;;;;;;9.75;3.20;;;-0.40;99.90;;;;;;5061263;28;20044;-56
2024/01/08 09:21:10;;;;;;;9.52;4.72;;;-0.70;99.90;;;;;;5061836;28;20029;-56
2024/01/08 09:23:35;;;;;;;2.92;1.63;;;-0.60;1.00;;;;;;5065366;28;20361;-57
2024/01/08 09:26:01;;;;;;;7.28;3.67;;;-0.60;1.00;;;;;;5060072;28;20453;-56
2024/01/08 09:28:26;;;;;;;5.35;3.53;;;-0.60;1.00;;;;;;5059644;28;20032;-57
2024/01/08 09:30:53;;;;;;;7.95;3.33;;;-0.70;1.00;;;;;;5065288;28;20480;-57
2024/01/08 09:33:19;;;;;;;5.07;2.47;;;-0.70;1.00;;;;;;5059318;28;20102;-60
2024/01/08 09:35:44;;;;;;;2.97;1.73;;;-0.60;1.00;;;;;;5062252;28;20403;-61
2024/01/08 09:38:10;;;;;;;1.63;1.00;;;-0.40;1.00;;;;;;5060250;28;20037;-60
2024/01/08 09:40:36;;;;;;;6.32;3.20;;;-0.40;99.90;;;;;;5069279;28;20039;-61
2024/01/08 09:43:06;;;;;;;1.92;0.98;;;-0.50;1.00;;;;;;5060658;28;20531;-61
2024/01/08 09:45:32;;;;;;;4.95;3.33;;;-0.60;1.00;;;;;;5062105;28;20028;-61
2024/01/08 09:47:58;;;;;;;4.00;2.10;;;-0.50;1.00;;;;;;5059857;28;20404;-61
2024/01/08 09:50:26;;;;;;;4.47;2.05;;;-0.40;99.90;;;;;;5056831;28;20028;-60
2024/01/08 09:52:53;;;;;;;1.50;0.85;;;-0.50;99.90;;;;;;5054148;28;20041;-61
2024/01/08 09:55:19;;;;;;;4.13;2.08;;;-0.40;1.00;;;;;;5059420;28;20085;-60
2024/01/08 09:57:45;;;;;;;1.90;1.25;;;-0.30;99.90;;;;;;5060730;28;20029;-60
2024/01/08 10:00:11;;;;;;;3.28;1.70;;;-0.50;1.00;;;;;;5060468;28;20089;-61
2024/01/08 10:02:38;;;;;;;1.02;0.80;;;-0.40;99.90;;;;;;5063537;28;20037;-60
2024/01/08 10:05:06;;;;;;;0.57;0.47;;;-0.30;1.00;;;;;;5059141;28;20522;-60
2024/01/08 10:07:35;;;;;;;0.32;0.28;;;-0.10;1.00;;;;;;5059760;28;20071;-60
2024/01/08 10:10:02;;;;;;;3.88;1.35;;;-0.10;99.90;;;;;;5068234;28;20127;-60
2024/01/08 10:12:30;;;;;;;0.93;0.93;;;-0.10;1.00;;;;;;5060706;28;20086;-61
2024/01/08 10:14:56;;;;;;;0.10;0.10;;;0.00;99.90;;;;;;5059766;28;20032;-61
2024/01/08 10:17:22;;;;;;;2.47;0.65;;;0.10;1.00;;;;;;5058270;28;20098;-61
2024/01/08 10:19:48;;;;;;;2.30;1.52;;;0.10;1.00;;;;;;5065694;28;20046;-60
2024/01/08 10:22:13;;;;;;;4.22;2.35;;;0.00;1.00;;;;;;5060049;28;20397;-58
2024/01/08 10:24:42;;;;;;;1.90;0.68;;;-0.10;1.00;;;;;;5061372;28;20098;-59
2024/01/08 10:27:09;;;;;;;2.05;1.00;;;0.10;99.90;;;;;;5059187;28;20048;-58
2024/01/08 10:29:36;;;;;;;5.35;2.13;;;0.30;73.30;;;;;;5060826;28;20128;-58
2024/01/08 10:32:02;;;;;;;5.88;1.17;;;0.10;99.90;;;;;;5061022;28;20446;-58
2024/01/08 10:34:29;;;;;;;3.10;1.55;;;-0.10;1.00;;;;;;5060662;28;20039;-67
2024/01/08 10:36:57;;;;;;;0.75;0.40;;;-0.30;43.50;;;;;;5060220;28;20081;-58
2024/01/08 10:39:22;;;;;;;0.32;0.32;;;-0.10;8.30;;;;;;5041387;28;20373;-59
2024/01/08 10:41:49;;;;;;;3.78;1.85;;;-0.10;1.00;;;;;;5061404;28;20039;-62
2024/01/08 10:44:15;;;;;;;3.47;1.70;;;-0.10;1.00;;;;;;5059372;28;20373;-58
2024/01/08 10:47:03;;;;;;;2.70;1.25;;;0.00;99.90;;;;;;5059286;28;20036;-57
2024/01/08 10:49:35;;;;;;;1.63;1.15;;;0.00;99.90;;;;;;5058923;28;20472;-59
2024/01/08 10:52:14;;;;;;;0.10;0.10;;;0.00;99.90;;;;;;5059330;28;20042;-56
2024/01/08 10:54:50;;;;;;;0.32;0.30;;;0.10;1.00;;;;;;5061510;28;20036;-58
2024/01/08 10:57:17;;;;;;;5.20;2.55;;;0.10;1.00;;;;;;5055075;28;20041;-57
2024/01/08 10:59:44;;;;;;;4.38;2.13;;;0.10;1.00;;;;;;5059836;28;20043;-57
2024/01/08 11:02:14;;;;;;;1.90;1.33;;;-0.30;1.00;;;;;;5062211;28;20035;-57
2024/01/08 11:04:42;;;;;;;1.88;0.88;;;-0.30;9.80;;;;;;5059705;28;20595;-57
2024/01/08 11:07:13;;;;;;;1.52;1.15;;;-0.30;1.00;;;;;;5058449;28;20040;-59
2024/01/08 11:09:39;;;;;;;2.10;0.77;;;-0.30;99.90;;;;;;5060837;28;20040;-57
2024/01/08 11:12:10;;;;;;;3.20;1.60;;;-0.10;94.00;;;;;;5057991;28;20496;-58
2024/01/08 11:14:36;;;;;;;3.08;1.73;;;-0.10;1.00;;;;;;5059939;28;20044;-58
2024/01/08 11:17:01;;;;;;;1.83;1.02;;;-0.30;1.00;;;;;;5061145;28;20036;-58
2024/01/08 11:19:27;;;;;;;2.47;0.85;;;-0.30;1.00;;;;;;5060191;28;20408;-63
2024/01/08 11:22:10;;;;;;;2.60;1.23;;;-0.30;1.00;;;;;;5058932;28;20041;-60
2024/01/08 11:24:35;;;;;;;2.40;1.70;;;-0.30;99.90;;;;;;5059831;28;20032;-59
2024/01/08 11:27:02;;;;;;;2.38;1.38;;;-0.40;99.90;;;;;;5058800;28;20029;-58
2024/01/08 11:29:27;;;;;;;0.50;0.50;;;-0.40;99.90;;;;;;5059742;28;20407;-58
2024/01/08 11:32:13;;;;;;;4.47;2.33;;;-0.40;99.90;;;;;;5058753;28;20040;-61
2024/01/08 11:35:00;;;;;;;3.20;2.03;;;-0.40;99.90;;;;;;5055300;28;20031;-60
2024/01/08 11:37:33;;;;;;;1.38;0.80;;;-0.50;99.90;;;;;;5057947;28;20115;-60
2024/01/08 11:40:09;;;;;;;1.73;1.52;;;-0.50;99.90;;;;;;5059556;28;20467;-60
2024/01/08 11:42:35;;;;;;;3.33;1.42;;;-0.60;99.90;;;;;;5032125;28;20056;-60
2024/01/08 11:45:02;;;;;;;3.10;1.80;;;-0.50;99.90;;;;;;5060299;28;20452;-60
2024/01/08 11:47:30;;;;;;;2.38;1.17;;;-0.50;99.90;;;;;;5058736;28;20660;-64
2024/01/08 11:49:56;;;;;;;3.05;1.58;;;-0.50;99.90;;;;;;5061809;28;20036;-59
2024/01/08 11:52:24;;;;;;;2.13;1.23;;;-0.40;99.90;;;;;;5062802;28;20506;-62
2024/01/08 11:54:52;;;;;;;2.95;1.65;;;-0.50;99.90;;;;;;5060647;28;20040;-59
2024/01/08 11:57:18;;;;;;;5.05;1.85;;;-0.50;99.90;;;;;;5056952;28;20090;-60
2024/01/08 11:59:45;;;;;;;2.55;1.67;;;-0.50;99.90;;;;;;5063962;28;20036;-59
2024/01/08 12:02:16;;;;;;;0.98;0.70;;;-0.50;99.90;;;;;;5059189;28;20127;-61
2024/01/08 12:04:51;;;;;;;2.45;1.35;;;-0.50;99.90;;;;;;5064044;28;20032;-60
2024/01/08 12:07:17;;;;;;;3.35;1.60;;;-0.30;99.90;;;;;;5058641;28;20096;-60
2024/01/08 12:09:42;;;;;;;3.15;1.60;;;-0.30;99.90;;;;;;5063668;28;20120;-61
2024/01/08 12:12:09;;;;;;;0.63;0.45;;;-0.30;99.90;;;;;;5062931;28;20404;-60
2024/01/08 12:14:36;;;;;;;2.72;1.50;;;-0.20;99.90;;;;;;5063547;28;20032;-59
2024/01/08 12:17:03;;;;;;;2.30;1.20;;;-0.40;93.70;;;;;;5060926;28;20040;-60
2024/01/08 12:19:41;;;;;;;3.47;1.98;;;;;;;;;;5066372;28;20043;-58
2024/01/08 12:22:10;;;;;;;6.90;1.75;;;-0.40;1.00;;;;;;5042572;28;20039;-60
2024/01/08 12:24:36;;;;;;;3.40;1.90;;;;;;;;;;5047553;28;20532;-60
2024/01/08 12:27:06;;;;;;;5.07;2.60;;;;;;;;;;5061769;28;20111;-61
2024/01/08 12:29:36;;;;;;;2.53;1.25;;;;;;;;;;5058305;28;20460;-60
2024/01/08 12:32:03;;;;;;;3.00;1.48;;;;;;;;;;5063809;28;20232;-60
2024/01/08 12:34:29;;;;;;;6.50;2.00;;;;;;;;;;5063184;28;20233;-60
2024/01/08 12:36:55;;;;;;;2.65;1.55;;;;;;;;;;5063120;28;20036;-58
2024/01/08 12:39:25;;;;;;;0.82;0.73;;;;;;;;;;5063168;28;20048;-59
2024/01/08 12:41:55;;;;;;;1.85;1.23;;;;;;;;;;5063562;28;20055;-57
2024/01/08 12:44:22;;;;;;;1.65;0.93;;;;;;;;;;5062356;28;20123;-58
2024/01/08 12:46:48;;;;;;;3.67;1.02;;;;;;;;;;5063093;28;20036;-56
2024/01/08 12:49:14;;;;;;;3.05;1.35;;;;;;;;;;5062436;28;20071;-57
2024/01/08 12:51:40;;;;;;;2.17;1.02;;;;;;;;;;5062618;28;20045;-58